Map

Track Data

SID SEASON NUMBER BASIN SUBBASIN NAME ISO_TIME NATURE LAT LON WMO_WIND WMO_PRES WMO_AGENCY TRACK_TYPE DIST2LAND LANDFALL IFLAG USA_AGENCY USA_ATCF_ID USA_LAT USA_LON USA_RECORD USA_STATUS USA_WIND USA_PRES USA_SSHS USA_R34_NE USA_R34_SE USA_R34_SW USA_R34_NW USA_R50_NE USA_R50_SE USA_R50_SW USA_R50_NW USA_R64_NE USA_R64_SE USA_R64_SW USA_R64_NW USA_POCI USA_ROCI USA_RMW USA_EYE TOKYO_LAT TOKYO_LON TOKYO_GRADE TOKYO_WIND TOKYO_PRES TOKYO_R50_DIR TOKYO_R50_LONG TOKYO_R50_SHORT TOKYO_R30_DIR TOKYO_R30_LONG TOKYO_R30_SHORT TOKYO_LAND CMA_LAT CMA_LON CMA_CAT CMA_WIND CMA_PRES HKO_LAT HKO_LON HKO_CAT HKO_WIND HKO_PRES NEWDELHI_LAT NEWDELHI_LON NEWDELHI_GRADE NEWDELHI_WIND NEWDELHI_PRES NEWDELHI_CI NEWDELHI_DP NEWDELHI_POCI REUNION_LAT REUNION_LON REUNION_TYPE REUNION_WIND REUNION_PRES REUNION_TNUM REUNION_CI REUNION_RMW REUNION_R34_NE REUNION_R34_SE REUNION_R34_SW REUNION_R34_NW REUNION_R50_NE REUNION_R50_SE REUNION_R50_SW REUNION_R50_NW REUNION_R64_NE REUNION_R64_SE REUNION_R64_SW REUNION_R64_NW BOM_LAT BOM_LON BOM_TYPE BOM_WIND BOM_PRES BOM_TNUM BOM_CI BOM_RMW BOM_R34_NE BOM_R34_SE BOM_R34_SW BOM_R34_NW BOM_R50_NE BOM_R50_SE BOM_R50_SW BOM_R50_NW BOM_R64_NE BOM_R64_SE BOM_R64_SW BOM_R64_NW BOM_ROCI BOM_POCI BOM_EYE BOM_POS_METHOD BOM_PRES_METHOD NADI_LAT NADI_LON NADI_CAT NADI_WIND NADI_PRES WELLINGTON_LAT WELLINGTON_LON WELLINGTON_WIND WELLINGTON_PRES DS824_LAT DS824_LON DS824_STAGE DS824_WIND DS824_PRES TD9636_LAT TD9636_LON TD9636_STAGE TD9636_WIND TD9636_PRES TD9635_LAT TD9635_LON TD9635_WIND TD9635_PRES TD9635_ROCI NEUMANN_LAT NEUMANN_LON NEUMANN_CLASS NEUMANN_WIND NEUMANN_PRES MLC_LAT MLC_LON MLC_CLASS MLC_WIND MLC_PRES USA_GUST BOM_GUST BOM_GUST_PER REUNION_GUST REUNION_GUST_PER USA_SEAHGT USA_SEARAD_NE USA_SEARAD_SE USA_SEARAD_SW USA_SEARAD_NW STORM_SPEED STORM_DIR
1983282N09155 1983 70 WP MM KIM 1983-10-09 00:00:00 NR 9.00000 154.900 main 1384 1324 __________O___ -1 9.00000 154.900 0 13 228
1983282N09155 1983 70 WP MM KIM 1983-10-09 03:00:00 NR 8.55673 154.406 main 1324 1255 __________P___ -1 8.55673 154.406 0 13 228
1983282N09155 1983 70 WP MM KIM 1983-10-09 06:00:00 NR 8.11579 153.914 main 1255 1200 __________P___ -1 8.11579 153.914 0 13 228
1983282N09155 1983 70 WP MM KIM 1983-10-09 09:00:00 NR 7.68045 153.423 main 1198 1144 __________P___ -1 7.68045 153.423 0 13 228
1983282N09155 1983 70 WP MM KIM 1983-10-09 12:00:00 NR 7.25395 152.934 main 1142 1090 __________P___ -1 7.25395 152.934 0 13 229
1983282N09155 1983 70 WP MM KIM 1983-10-09 15:00:00 NR 6.83950 152.447 main 1077 1038 __________P___ -1 6.83950 152.447 0 13 230
1983282N09155 1983 70 WP MM KIM 1983-10-09 18:00:00 NR 6.44027 151.962 main 1027 988 __________P___ -1 6.44027 151.962 0 12 231
1983282N09155 1983 70 WP MM KIM 1983-10-09 21:00:00 NR 6.05940 151.480 main 988 941 __________P___ -1 6.05940 151.480 0 12 232
1983282N09155 1983 70 WP MM KIM 1983-10-10 00:00:00 NR 5.70000 151.000 main 941 908 __________O___ -1 5.70000 151.000 0 12 234
1983282N09155 1983 70 WP MM KIM 1983-10-10 03:00:00 NR 5.37079 150.520 main 908 860 __________P___ -1 5.37079 150.520 0 11 238
1983282N09155 1983 70 WP MM KIM 1983-10-10 06:00:00 NR 5.10310 150.022 main 857 818 __________P___ -1 5.10310 150.022 0 11 247
1983282N09155 1983 70 WP MM KIM 1983-10-10 09:00:00 NR 4.93387 149.489 main 818 802 __________P___ -1 4.93387 149.489 0 11 260
1983282N09155 1983 70 WP MM KIM 1983-10-10 12:00:00 NR 4.90000 148.900 main 802 793 __________O___ -1 4.90000 148.900 0 13 274
1983282N09155 1983 70 WP MM KIM 1983-10-10 15:00:00 NR 5.02631 148.233 main 800 800 __________P___ -1 5.02631 148.233 0 14 286
1983282N09155 1983 70 WP MM KIM 1983-10-10 18:00:00 NR 5.28507 147.510 main 829 829 __________P___ -1 5.28507 147.510 0 16 292
1983282N09155 1983 70 WP MM KIM 1983-10-10 21:00:00 NR 5.62627 146.758 main 862 862 __________P___ -1 5.62627 146.758 0 17 295
1983282N09155 1983 70 WP MM KIM 1983-10-11 00:00:00 NR 6.00000 146.000 main 910 910 __________O___ -1 6.00000 146.000 0 16 296
1983282N09155 1983 70 WP MM KIM 1983-10-11 03:00:00 NR 6.34028 145.279 main 952 952 __________P___ -1 6.34028 145.279 0 16 296
1983282N09155 1983 70 WP MM KIM 1983-10-11 06:00:00 NR 6.69951 144.557 main 1010 1010 __________P___ -1 6.69951 144.557 0 16 297
1983282N09155 1983 70 WP MM KIM 1983-10-11 09:00:00 NR 7.05899 143.832 main 1076 1076 __________P___ -1 7.05899 143.832 0 16 296
1983282N09155 1983 70 WP MM KIM 1983-10-11 12:00:00 NR 7.40000 143.100 main 1133 1133 __________O___ -1 7.40000 143.100 0 16 294
1983282N09155 1983 70 WP MM KIM 1983-10-11 15:00:00 NR 7.70409 142.377 main 1141 1134 __________P___ -1 7.70409 142.377 0 16 292
1983282N09155 1983 70 WP MM KIM 1983-10-11 18:00:00 NR 7.98659 141.644 main 1140 1136 __________P___ -1 7.98659 141.644 0 16 290
1983282N09155 1983 70 WP MM KIM 1983-10-11 21:00:00 NR 8.25083 140.890 main 1149 1140 __________P___ -1 8.25083 140.890 0 16 289
1983282N09155 1983 70 WP MM KIM 1983-10-12 00:00:00 NR 8.50000 140.100 main 1141 1129 __________O___ -1 8.50000 140.100 0 17 288
1983282N09155 1983 70 WP MM KIM 1983-10-12 03:00:00 NR 8.75940 139.265 main 1139 1125 __________P___ -1 8.75940 139.265 0 18 287
1983282N09155 1983 70 WP MM KIM 1983-10-12 06:00:00 NR 9.00206 138.395 main 1130 1124 __________P___ -1 9.00206 138.395 0 18 285
1983282N09155 1983 70 WP MM KIM 1983-10-12 09:00:00 NR 9.21866 137.502 main 1129 1116 __________P___ -1 9.21866 137.502 0 18 283
1983282N09155 1983 70 WP MM KIM 1983-10-12 12:00:00 NR 9.40000 136.600 main 1116 1032 __________O___ -1 9.40000 136.600 0 18 280
1983282N09155 1983 70 WP MM KIM 1983-10-12 15:00:00 NR 9.53526 135.711 main 1021 937 __________P___ -1 9.53526 135.711 0 18 278
1983282N09155 1983 70 WP MM KIM 1983-10-12 18:00:00 NR 9.63656 134.814 main 926 844 __________P___ -1 9.63656 134.814 0 18 276
1983282N09155 1983 70 WP MM KIM 1983-10-12 21:00:00 NR 9.71958 133.911 main 833 752 __________P___ -1 9.71958 133.911 0 18 275
1983282N09155 1983 70 WP MM KIM 1983-10-13 00:00:00 NR 9.80000 133.000 main 742 648 __________O___ -1 9.80000 133.000 0 18 276
1983282N09155 1983 70 WP MM KIM 1983-10-13 03:00:00 NR 9.91559 132.082 main 648 554 __________P___ -1 9.91559 132.082 0 18 277
1983282N09155 1983 70 WP MM KIM 1983-10-13 06:00:00 NR 10.0291 131.158 main 554 460 __________P___ -1 10.0291 131.158 0 18 277
1983282N09155 1983 70 WP MM KIM 1983-10-13 09:00:00 NR 10.1281 130.229 main 450 368 __________P___ -1 10.1281 130.229 0 18 275
1983282N09155 1983 70 WP MM KIM 1983-10-13 12:00:00 NR 10.2000 129.300 main 358 266 __________O___ -1 10.2000 129.300 0 18 273
1983282N09155 1983 70 WP MM KIM 1983-10-13 15:00:00 NR 10.2199 128.370 main 266 181 __________P___ -1 10.2199 128.370 0 18 270
1983282N09155 1983 70 WP MM KIM 1983-10-13 18:00:00 NR 10.2141 127.442 main 172 102 __________P___ -1 10.2141 127.442 0 18 269
1983282N09155 1983 70 WP MM KIM 1983-10-13 21:00:00 NR 10.2012 126.517 main 95 45 __________P___ -1 10.2012 126.517 0 18 270
1983282N09155 1983 70 WP MM KIM 1983-10-14 00:00:00 NR 10.2000 125.600 main 34 0 __________O___ -1 10.2000 125.600 0 18 273
1983282N09155 1983 70 WP MM KIM 1983-10-14 03:00:00 NR 10.2877 124.690 main 10 0 __________P___ -1 10.2877 124.690 0 18 276
1983282N09155 1983 70 WP MM KIM 1983-10-14 06:00:00 NR 10.3815 123.787 main 0 0 __________P___ -1 10.3815 123.787 0 18 275
1983282N09155 1983 70 WP MM KIM 1983-10-14 09:00:00 NR 10.4346 122.890 main 0 0 __________P___ -1 10.4346 122.890 0 18 271
1983282N09155 1983 70 WP MM KIM 1983-10-14 12:00:00 NR 10.4000 122.000 main 0 0 __________O___ -1 10.4000 122.000 0 18 261
1983282N09155 1983 70 WP MM KIM 1983-10-14 15:00:00 NR 10.1653 121.092 main 90 86 __________P___ -1 10.1653 121.092 0 18 254
1983282N09155 1983 70 WP MM KIM 1983-10-14 18:00:00 NR 9.89971 120.196 main 86 60 O_________P___ jtwc_wp WP161983 10.1000 120.200 20 -1 9.84964 120.195 0 18 251
1983282N09155 1983 70 WP MM KIM 1983-10-14 21:00:00 NR 9.56456 119.333 main 55 15 P_________P___ WP161983 9.62538 119.347 20 -1 9.53414 119.326 0 17 250
1983282N09155 1983 70 WP MM KIM 1983-10-15 00:00:00 TS 9.30000 118.563 main 15 0 O_O_______O___ jtwc_wp WP161983 9.30000 118.500 20 -1 9.30000 119.000 0 19 1006 9.30000 118.500 1 20 15 259
1983282N09155 1983 70 WP MM KIM 1983-10-15 03:00:00 TS 9.27373 117.812 main 11 11 P_P_______P___ WP161983 9.22491 117.670 20 -1 9.35040 118.268 0 19 1006 9.28421 117.725 1 21 14 272
1983282N09155 1983 70 WP MM KIM 1983-10-15 06:00:00 TS 9.34691 117.124 main 62 62 O_O_______P___ jtwc_wp WP161983 9.30000 116.900 20 -1 9.40000 117.600 0 19 1006 9.35401 116.992 1 22 13 277
1983282N09155 1983 70 WP MM KIM 1983-10-15 09:00:00 TS 9.43210 116.519 main 123 123 P_P_______P___ WP161983 9.39971 116.235 22 -1 9.44976 117.035 0 19 1006 9.44683 116.288 1 23 12 277
1983282N09155 1983 70 WP MM KIM 1983-10-15 12:00:00 TS 9.50000 115.900 main 183 183 O_O_______O___ jtwc_wp WP161983 9.50000 115.600 25 -1 9.50000 116.500 0 19 1006 9.50000 115.600 1 25 13 273
1983282N09155 1983 70 WP MM KIM 1983-10-15 15:00:00 TS 9.49148 115.245 main 251 251 P_P_______P___ WP161983 9.55245 114.900 25 -1 9.54966 115.952 0 21 1005 9.37233 114.881 1 25 13 266
1983282N09155 1983 70 WP MM KIM 1983-10-15 18:00:00 TS 9.40149 114.594 1006 tokyo main 310 310 OOO_______P___ jtwc_wp WP161983 9.50000 114.200 25 -1 9.00000 115.000 2 1006 0 0 0 9.60000 115.300 1 23 1004 9.20486 114.181 1 25 13 261
1983282N09155 1983 70 WP MM KIM 1983-10-15 21:00:00 TS 9.27402 113.913 main 379 379 PPP_______P___ WP161983 9.24242 113.527 25 -1 9.01273 114.488 2 1005 0 0 9.65034 114.408 1 26 1003 9.05993 113.516 1 25 13 260
1983282N09155 1983 70 WP MM KIM 1983-10-16 00:00:00 TS 9.17500 113.325 1004 tokyo main 440 440 OOOO______O___ jtwc_wp WP161983 9.00000 112.900 25 -1 9.00000 114.000 2 1004 0 0 0 9.70000 113.500 1 29 1002 9.00000 114.000 TD 30 1000 9.00000 112.900 1 25 11 265
1983282N09155 1983 70 WP MM KIM 1983-10-16 03:00:00 TS 9.17836 112.835 main 483 440 PPPP______P___ WP161983 8.95991 112.320 25 -1 8.96226 113.537 2 1002 0 0 9.74228 112.782 1 29 1001 9.09767 113.463 TD 30 1000 9.08934 112.386 1 27 10 276
1983282N09155 1983 70 WP MM KIM 1983-10-16 06:00:00 TS 9.27813 112.335 1000 tokyo main 431 379 OOOO______P___ jtwc_wp WP161983 9.10000 111.800 25 -1 9.00000 113.000 2 1000 0 0 0 9.80000 112.200 1 29 1000 9.20000 112.900 TD 30 1000 9.27111 111.915 1 30 11 286
1983282N09155 1983 70 WP MM KIM 1983-10-16 09:00:00 TS 9.46191 111.812 main 373 315 PPPP______P___ WP161983 9.40486 111.343 30 -1 9.19019 112.265 2 1000 0 0 9.87727 111.727 1 29 1000 9.31983 112.287 TD 32 998 9.51739 111.436 1 32 12 292
1983282N09155 1983 70 WP MM KIM 1983-10-16 12:00:00 TS 9.72000 111.240 1000 tokyo main 306 243 OOOO______O___ jtwc_wp WP161983 9.80000 110.900 35 0 9.50000 111.500 2 1000 0 0 0 10.0000 111.300 1 29 1000 9.50000 111.600 TS 35 997 9.80000 110.900 2 35 13 296
1983282N09155 1983 70 WP MM KIM 1983-10-16 15:00:00 TS 10.0055 110.657 main 243 164 PPPP______P___ WP161983 10.1645 110.475 37 0 9.86973 110.885 2 997 0 0 10.1548 110.830 1 33 999 9.75480 110.845 TS 35 997 10.0834 110.252 2 35 14 297
1983282N09155 1983 70 WP MM KIM 1983-10-16 18:00:00 TS 10.3385 110.008 40 994 tokyo main 164 84 OOOO______P___ jtwc_wp WP161983 10.5000 109.900 40 0 10.3000 110.300 3 40 994 0 9 100 100 0 10.4000 110.300 2 38 998 10.1000 110.000 TS 35 997 10.3924 109.540 2 35 15 297
1983282N09155 1983 70 WP MM KIM 1983-10-16 21:00:00 TS 10.6988 109.264 main 84 10 PPPP______P___ WP161983 10.7578 109.010 37 0 10.7417 109.747 3 37 996 0 9 87 87 10.7699 109.687 2 38 996 10.5197 109.095 TS 37 996 10.7051 108.783 2 35 17 295
1983282N09155 1983 70 WP MM KIM 1983-10-17 00:00:00 TS 11.0800 108.420 35 998 tokyo main 0 0 OOOO______O___ jtwc_wp WP161983 11.0000 108.000 35 0 11.2000 109.000 3 35 998 0 9 75 75 0 11.2000 109.000 2 38 995 11.0000 108.100 TS 40 995 11.0000 108.000 2 35 19 294
1983282N09155 1983 70 WP MM KIM 1983-10-17 03:00:00 TS 11.4603 107.483 main 0 0 PPPP______P___ WP161983 11.3149 107.063 32 -1 11.6654 107.840 3 35 999 0 9 62 62 11.5842 108.339 2 38 996 11.5228 106.978 TS 37 996 11.2141 107.196 2 31 20 291
1983282N09155 1983 70 WP MM KIM 1983-10-17 06:00:00 TS 11.8225 106.495 35 1000 tokyo main 0 0 OOOO______P___ jtwc_wp WP161983 11.6000 106.200 30 -1 12.1000 106.500 3 35 1000 0 9 50 50 0 12.0000 107.500 2 38 998 12.0000 105.900 TS 35 998 11.4127 106.376 2 27 21 289
1983282N09155 1983 70 WP MM KIM 1983-10-17 09:00:00 TS 12.1395 105.504 main 0 0 PPPP______P___ WP161983 11.7270 105.477 25 -1 12.4804 105.160 3 1002 0 9 12.5233 106.288 2 33 999 12.3370 105.025 TS 32 998 11.6298 105.568 2 23 20 288
1983282N09155 1983 70 WP MM KIM 1983-10-17 12:00:00 TS 12.4400 104.580 1004 tokyo main 0 0 OOOO______O___ jtwc_wp WP161983 11.9000 104.800 20 -1 12.8000 104.000 2 1004 0 0 0 13.0000 105.000 1 29 1000 12.6000 104.300 TD 30 999 11.9000 104.800 1 20 18 291
1983282N09155 1983 70 WP MM KIM 1983-10-17 15:00:00 TS 12.7686 103.783 main 0 0 PPPP______P___ WP161983 12.3126 104.028 20 -1 13.0714 103.260 2 1004 0 0 13.2873 103.887 1 26 1002 12.8723 103.647 TD 27 999 12.2992 104.095 1 20 16 294
1983282N09155 1983 70 WP MM KIM 1983-10-17 18:00:00 TS 13.0898 103.107 1004 tokyo main 0 0 OOOO______P___ jtwc_wp WP161983 12.8000 103.300 20 -1 13.3000 102.700 2 1004 0 0 0 13.5000 103.000 1 23 1004 13.1000 103.100 TD 25 1000 12.7490 103.434 1 20 14 297
1983282N09155 1983 70 WP MM KIM 1983-10-17 21:00:00 TS 13.3944 102.545 main 0 0 PPPP______P___ WP161983 13.2222 102.720 20 -1 13.5148 102.057 2 1004 0 0 13.7862 102.500 1 23 1004 13.2497 102.642 TD 25 1000 13.1993 102.805 1 20 12 298
1983282N09155 1983 70 WP MM KIM 1983-10-18 00:00:00 TS 13.6600 102.000 1004 tokyo main 0 0 OOOO______O___ jtwc_wp WP161983 13.6000 102.200 20 -1 13.7000 101.400 2 1004 0 0 0 14.0000 102.000 1 23 1004 13.4000 102.200 TD 25 1000 13.6000 102.200 1 20 13 291
1983282N09155 1983 70 WP MM KIM 1983-10-18 03:00:00 TS 13.8452 101.333 main 0 0 PPPP______P___ WP161983 13.9298 101.665 20 -1 13.8276 100.677 2 1004 0 0 13.9636 100.999 1 21 1004 13.6198 101.695 TD 25 1000 13.8854 101.631 1 13 287
1983282N09155 1983 70 WP MM KIM 1983-10-18 06:00:00 TS 14.0454 100.690 1004 tokyo main 0 0 OOOO______P___ jtwc_wp WP161983 14.2000 101.100 20 -1 14.0000 100.000 2 1004 0 0 0 14.0000 100.000 0 19 1004 13.9000 101.100 TD 25 1000 14.1158 101.078 1 13 293
1983282N09155 1983 70 WP MM KIM 1983-10-18 09:00:00 TS 14.3448 100.108 main 0 0 PPPP______P___ WP161983 14.4299 100.472 20 -1 14.3348 99.4551 2 1004 0 0 14.3867 99.3759 0 19 1005 14.2802 100.358 TD 25 1000 14.3134 100.512 1 12 298
1983282N09155 1983 70 NI BB KIM 1983-10-18 12:00:00 TS 14.6176 99.5882 main 0 0 OOOO______O___ jtwc_wp WP161983 14.6000 99.8000 20 -1 14.7000 99.0000 2 1004 0 0 0 15.0000 99.0000 0 19 1006 14.6000 99.6000 TD 25 1000 14.5000 99.9000 0 11 290
1983282N09155 1983 70 NI BB KIM 1983-10-18 15:00:00 TS 14.7327 99.0340 main 0 0 PP_P______P___ WP161983 14.7073 99.1147 22 -1 14.9802 98.5900 2 1004 0 0 0 14.6944 99.0070 TD 25 1000 14.6877 99.1593 0 12 280
1983282N09155 1983 70 NI BB KIM 1983-10-18 18:00:00 TS 14.8178 98.3817 main 0 0 OO_O______P___ jtwc_wp WP161983 14.8000 98.4000 25 -1 15.2000 98.2000 2 1004 0 0 0 14.7000 98.4000 TD 25 1000 14.8713 98.3769 0 14 276
1983282N09155 1983 70 NI BB KIM 1983-10-18 21:00:00 NR 14.8886 97.6150 main 21 21 P__P______P___ WP161983 14.9051 97.6272 25 -1 2 0 0 14.6753 97.5993 TD 27 999 15.0690 97.6061 0 15 280
1983282N09155 1983 70 NI BB KIM 1983-10-19 00:00:00 NR 15.0750 96.8750 main 88 88 O__O______O___ jtwc_wp WP161983 15.1000 96.9000 25 -1 14.8000 96.8000 TD 30 998 15.3000 96.9000 1 14 293
1983282N09155 1983 70 NI BB KIM 1983-10-19 03:00:00 NR 15.4363 96.2662 main 92 15 P__P______P___ WP161983 15.4547 96.3050 27 -1 15.2597 96.1552 TD 30 998 15.5760 96.2996 1 14 307
1983282N09155 1983 70 NI BB KIM 1983-10-19 06:00:00 NR 15.8972 95.7431 main 10 0 O__O______P___ jtwc_wp WP161983 15.9000 95.8000 30 -1 15.9000 95.6000 TD 30 998 15.8890 95.7723 1 14 314
1983282N09155 1983 70 NI BB KIM 1983-10-19 09:00:00 NR 16.3724 95.2491 main 0 0 P__P______P___ WP161983 16.3424 95.3199 30 -1 16.5725 95.0478 TD 30 998 16.2325 95.3089 1 13 317
1983282N09155 1983 70 NI BB KIM 1983-10-19 12:00:00 NR 16.8500 94.8250 main 0 0 O__O______O___ jtwc_wp WP161983 16.8000 94.9000 30 -1 17.2000 94.6000 TD 30 998 16.6000 94.9000 1 12 321
1983282N09155 1983 70 NI BB KIM 1983-10-19 15:00:00 NR 17.2919 94.4611 main 10 10 P__P______P___ WP161983 17.2724 94.5200 30 -1 17.6448 94.3045 TD 27 999 16.9780 94.5001 1 11 323
1983282N09155 1983 70 NI BB KIM 1983-10-19 18:00:00 NR 17.6943 94.1631 main 33 33 O__O______P___ jtwc_wp WP161983 17.7000 94.2000 30 -1 18.0000 94.1000 TD 25 1000 17.3770 94.1523 1 9 324
1983282N09155 1983 70 NI BB KIM 1983-10-19 21:00:00 NR 18.0381 93.9019 main 47 43 P__P______P___ WP161983 18.0074 93.9347 27 -1 18.3500 93.8849 TD 25 1000 17.7876 93.8533 1 8 326
1983282N09155 1983 70 NI BB KIM 1983-10-20 00:00:00 NR 18.3750 93.6750 main 49 38 O__O______O___ jtwc_wp WP161983 18.3000 93.7000 25 -1 18.7000 93.7000 TD 25 1000 18.2000 93.6000 1 9 330
1983282N09155 1983 70 NI BB KIM 1983-10-20 03:00:00 NR 18.7692 93.4520 main 30 30 P__P______P___ WP161983 18.6850 93.4425 25 -1 19.1000 93.5350 TD 25 1000 18.6067 93.3880 1 9 333
1983282N09155 1983 70 NI BB KIM 1983-10-20 06:00:00 NR 19.1659 93.2445 main 43 41 O__O______P___ jtwc_wp WP161983 19.1000 93.2000 25 -1 19.5000 93.4000 TD 25 1000 19.0076 93.2078 1 9 333
1983282N09155 1983 70 NI BB KIM 1983-10-20 09:00:00 NR 19.5345 93.0468 main 64 22 P__P______P___ WP161983 19.4850 92.9849 25 -1 19.8625 93.2925 TD 25 1001 19.4048 93.0488 1 8 335
1983282N09155 1983 70 NI BB KIM 1983-10-20 12:00:00 NR 19.9250 92.8625 main 22 0 O__O______O___ jtwc_wp WP161983 19.9000 92.8000 25 -1 20.2000 93.2000 TD 25 1002 19.8000 92.9000 1 9 336
1983282N09155 1983 70 NI BB KIM 1983-10-20 15:00:00 NR 20.3800 92.6427 main 10 0 P_____________ WP161983 20.3800 92.6427 22 -1 TD 1 10 341
1983282N09155 1983 70 NI BB KIM 1983-10-20 18:00:00 NR 20.9000 92.5000 main 0 O_____________ jtwc_wp WP161983 20.9000 92.5000 20 -1 1 11 346

Digital Typhoon Data and Search

About IBTrACS Database

This database is a web-friendly format of International Best Track Archive for Climate Stewardship (IBTrACS), a global best track data archive curated by NOAA dating back to 1842.

Updated: 2021-11-26